ESST/TYF METAR and TAF weather

Enter ICAO airport designator
Station Type Date Time Source
ESST METAR 2022/06/23 17:50 UTC NOAA

ESST 231750Z 22008KT 180V260 CAVOK 22/12 Q1010


Station Type Date Time Source
ESST Decoded METAR 2022/06/23 17:50 UTC NOAA

Station name not available
Jun 23, 2022 - 01:50 PM EDT / 2022.06.23 1750 UTC
Wind: from the SW (220 degrees) at 9 MPH (8 KT) (direction variable):0
Visibility: greater than 7 mile(s):0
Temperature: 71 F (22 C)
Dew Point: 53 F (12 C)
Relative Humidity: 53%
Pressure (altimeter): 29.83 in. Hg (1010 hPa)
ob: ESST 231750Z 22008KT 180V260 CAVOK 22/12 Q1010
cycle: 18

Station Type Date Time Source
ESST TAF UTC NOAA

Error!

Example: see airport list